sensor_id;sensor_type;location;lat;lon;timestamp;P1;durP1;ratioP1;P2;durP2;ratioP2
23990;SDS011;12205;50.600;4.608;2024-03-08T00:01:28;95.13;;;25.77;;
23990;SDS011;12205;50.600;4.608;2024-03-08T00:03:55;84.95;;;22.98;;
23990;SDS011;12205;50.600;4.608;2024-03-08T00:10:18;95.88;;;24.70;;
23990;SDS011;12205;50.600;4.608;2024-03-08T00:12:46;81.38;;;21.60;;
23990;SDS011;12205;50.600;4.608;2024-03-08T00:15:13;92.75;;;24.65;;
23990;SDS011;12205;50.600;4.608;2024-03-08T00:17:42;77.75;;;20.73;;
23990;SDS011;12205;50.600;4.608;2024-03-08T00:20:10;79.53;;;21.48;;
23990;SDS011;12205;50.600;4.608;2024-03-08T00:22:38;92.38;;;23.75;;
23990;SDS011;12205;50.600;4.608;2024-03-08T00:25:06;101.05;;;26.42;;
23990;SDS011;12205;50.600;4.608;2024-03-08T00:27:36;87.05;;;23.50;;
23990;SDS011;12205;50.600;4.608;2024-03-08T00:30:04;104.63;;;27.63;;
23990;SDS011;12205;50.600;4.608;2024-03-08T00:32:33;87.45;;;23.73;;
23990;SDS011;12205;50.600;4.608;2024-03-08T00:35:00;96.13;;;25.60;;
23990;SDS011;12205;50.600;4.608;2024-03-08T00:37:28;84.47;;;22.40;;
23990;SDS011;12205;50.600;4.608;2024-03-08T00:39:56;86.25;;;22.58;;
23990;SDS011;12205;50.600;4.608;2024-03-08T00:42:23;87.30;;;23.23;;
23990;SDS011;12205;50.600;4.608;2024-03-08T00:44:51;95.00;;;25.00;;
23990;SDS011;12205;50.600;4.608;2024-03-08T00:47:19;99.80;;;26.33;;
23990;SDS011;12205;50.600;4.608;2024-03-08T00:49:46;92.05;;;24.55;;
23990;SDS011;12205;50.600;4.608;2024-03-08T00:52:13;140.57;;;35.55;;
23990;SDS011;12205;50.600;4.608;2024-03-08T00:54:40;93.65;;;23.77;;
23990;SDS011;12205;50.600;4.608;2024-03-08T00:57:08;93.93;;;23.77;;
23990;SDS011;12205;50.600;4.608;2024-03-08T00:59:35;88.60;;;23.55;;
23990;SDS011;12205;50.600;4.608;2024-03-08T01:02:05;85.65;;;22.50;;
23990;SDS011;12205;50.600;4.608;2024-03-08T01:04:34;95.70;;;24.83;;
23990;SDS011;12205;50.600;4.608;2024-03-08T01:07:01;88.88;;;23.70;;
23990;SDS011;12205;50.600;4.608;2024-03-08T01:09:28;102.20;;;25.63;;
23990;SDS011;12205;50.600;4.608;2024-03-08T01:11:55;92.72;;;24.35;;
23990;SDS011;12205;50.600;4.608;2024-03-08T01:14:22;143.88;;;35.78;;
23990;SDS011;12205;50.600;4.608;2024-03-08T01:16:50;104.68;;;26.52;;
23990;SDS011;12205;50.600;4.608;2024-03-08T01:19:19;107.43;;;27.23;;
23990;SDS011;12205;50.600;4.608;2024-03-08T01:21:46;82.97;;;21.52;;
23990;SDS011;12205;50.600;4.608;2024-03-08T01:24:13;88.55;;;23.13;;
23990;SDS011;12205;50.600;4.608;2024-03-08T01:26:40;79.60;;;21.33;;
23990;SDS011;12205;50.600;4.608;2024-03-08T01:29:07;92.63;;;24.58;;
23990;SDS011;12205;50.600;4.608;2024-03-08T01:31:34;108.50;;;28.42;;
23990;SDS011;12205;50.600;4.608;2024-03-08T01:34:01;95.68;;;24.45;;
23990;SDS011;12205;50.600;4.608;2024-03-08T01:36:30;129.27;;;32.25;;
23990;SDS011;12205;50.600;4.608;2024-03-08T01:38:59;86.32;;;23.65;;
23990;SDS011;12205;50.600;4.608;2024-03-08T01:41:26;112.18;;;28.88;;
23990;SDS011;12205;50.600;4.608;2024-03-08T01:43:57;101.38;;;26.80;;
23990;SDS011;12205;50.600;4.608;2024-03-08T01:46:24;92.57;;;23.80;;
23990;SDS011;12205;50.600;4.608;2024-03-08T01:48:53;98.22;;;26.30;;
23990;SDS011;12205;50.600;4.608;2024-03-08T01:51:21;94.25;;;26.00;;
23990;SDS011;12205;50.600;4.608;2024-03-08T01:53:49;77.75;;;21.70;;
23990;SDS011;12205;50.600;4.608;2024-03-08T01:56:16;103.13;;;26.50;;
23990;SDS011;12205;50.600;4.608;2024-03-08T01:58:44;105.30;;;27.63;;
23990;SDS011;12205;50.600;4.608;2024-03-08T02:01:12;104.32;;;27.77;;
23990;SDS011;12205;50.600;4.608;2024-03-08T02:03:39;124.55;;;33.05;;
23990;SDS011;12205;50.600;4.608;2024-03-08T02:06:09;89.90;;;23.27;;
23990;SDS011;12205;50.600;4.608;2024-03-08T02:08:38;85.57;;;23.58;;
23990;SDS011;12205;50.600;4.608;2024-03-08T02:11:07;95.88;;;24.95;;
23990;SDS011;12205;50.600;4.608;2024-03-08T02:13:34;84.35;;;22.33;;
23990;SDS011;12205;50.600;4.608;2024-03-08T02:16:01;100.30;;;26.08;;
23990;SDS011;12205;50.600;4.608;2024-03-08T02:18:29;93.68;;;25.00;;
23990;SDS011;12205;50.600;4.608;2024-03-08T02:21:01;100.95;;;26.48;;
23990;SDS011;12205;50.600;4.608;2024-03-08T02:23:29;95.68;;;25.35;;
23990;SDS011;12205;50.600;4.608;2024-03-08T02:25:56;126.60;;;32.78;;
23990;SDS011;12205;50.600;4.608;2024-03-08T02:28:24;95.55;;;26.30;;
23990;SDS011;12205;50.600;4.608;2024-03-08T02:30:51;99.38;;;26.42;;
23990;SDS011;12205;50.600;4.608;2024-03-08T02:33:20;95.15;;;25.40;;
23990;SDS011;12205;50.600;4.608;2024-03-08T02:35:47;84.65;;;23.80;;
23990;SDS011;12205;50.600;4.608;2024-03-08T02:38:16;96.05;;;25.15;;
23990;SDS011;12205;50.600;4.608;2024-03-08T02:40:44;91.97;;;24.92;;
23990;SDS011;12205;50.600;4.608;2024-03-08T02:43:12;102.32;;;27.30;;
23990;SDS011;12205;50.600;4.608;2024-03-08T02:45:41;88.88;;;23.73;;
23990;SDS011;12205;50.600;4.608;2024-03-08T02:48:09;86.32;;;22.67;;
23990;SDS011;12205;50.600;4.608;2024-03-08T02:50:36;91.57;;;24.45;;
23990;SDS011;12205;50.600;4.608;2024-03-08T02:53:05;119.95;;;32.35;;
23990;SDS011;12205;50.600;4.608;2024-03-08T02:55:34;105.07;;;26.48;;
23990;SDS011;12205;50.600;4.608;2024-03-08T02:58:02;89.38;;;25.58;;
23990;SDS011;12205;50.600;4.608;2024-03-08T03:00:30;90.00;;;25.60;;
23990;SDS011;12205;50.600;4.608;2024-03-08T03:02:57;93.60;;;25.25;;
23990;SDS011;12205;50.600;4.608;2024-03-08T03:05:24;87.05;;;24.33;;
23990;SDS011;12205;50.600;4.608;2024-03-08T03:07:52;84.25;;;22.48;;
23990;SDS011;12205;50.600;4.608;2024-03-08T03:10:19;85.57;;;24.65;;
23990;SDS011;12205;50.600;4.608;2024-03-08T03:12:48;90.07;;;24.50;;
23990;SDS011;12205;50.600;4.608;2024-03-08T03:15:15;134.15;;;35.45;;
23990;SDS011;12205;50.600;4.608;2024-03-08T03:17:45;94.80;;;26.30;;
23990;SDS011;12205;50.600;4.608;2024-03-08T03:20:13;85.97;;;23.85;;
23990;SDS011;12205;50.600;4.608;2024-03-08T03:22:47;59.05;;;17.58;;
23990;SDS011;12205;50.600;4.608;2024-03-08T03:25:17;94.68;;;26.20;;
23990;SDS011;12205;50.600;4.608;2024-03-08T03:27:52;92.55;;;25.67;;
23990;SDS011;12205;50.600;4.608;2024-03-08T03:30:21;100.18;;;26.10;;
23990;SDS011;12205;50.600;4.608;2024-03-08T03:32:51;100.97;;;26.92;;
23990;SDS011;12205;50.600;4.608;2024-03-08T03:35:19;97.85;;;27.15;;
23990;SDS011;12205;50.600;4.608;2024-03-08T03:37:47;97.60;;;26.17;;
23990;SDS011;12205;50.600;4.608;2024-03-08T03:40:29;87.03;;;24.92;;
23990;SDS011;12205;50.600;4.608;2024-03-08T03:42:57;128.07;;;35.35;;
23990;SDS011;12205;50.600;4.608;2024-03-08T03:45:24;95.68;;;27.02;;
23990;SDS011;12205;50.600;4.608;2024-03-08T03:47:52;98.60;;;28.08;;
23990;SDS011;12205;50.600;4.608;2024-03-08T03:50:19;78.32;;;23.02;;
23990;SDS011;12205;50.600;4.608;2024-03-08T03:52:47;87.97;;;25.40;;
23990;SDS011;12205;50.600;4.608;2024-03-08T03:55:14;96.82;;;27.27;;
23990;SDS011;12205;50.600;4.608;2024-03-08T03:57:41;87.30;;;24.80;;
23990;SDS011;12205;50.600;4.608;2024-03-08T04:00:12;90.32;;;25.83;;
23990;SDS011;12205;50.600;4.608;2024-03-08T04:02:40;90.28;;;25.40;;
23990;SDS011;12205;50.600;4.608;2024-03-08T04:05:07;98.18;;;27.75;;
23990;SDS011;12205;50.600;4.608;2024-03-08T04:07:36;99.57;;;27.85;;
23990;SDS011;12205;50.600;4.608;2024-03-08T04:10:04;104.43;;;29.10;;
23990;SDS011;12205;50.600;4.608;2024-03-08T04:12:32;107.57;;;28.13;;
23990;SDS011;12205;50.600;4.608;2024-03-08T04:14:59;92.90;;;26.88;;
23990;SDS011;12205;50.600;4.608;2024-03-08T04:17:28;102.95;;;27.60;;
23990;SDS011;12205;50.600;4.608;2024-03-08T04:19:55;100.97;;;27.73;;
23990;SDS011;12205;50.600;4.608;2024-03-08T04:22:22;101.18;;;27.35;;
23990;SDS011;12205;50.600;4.608;2024-03-08T04:24:49;95.28;;;26.63;;
23990;SDS011;12205;50.600;4.608;2024-03-08T04:27:16;82.47;;;24.88;;
23990;SDS011;12205;50.600;4.608;2024-03-08T04:29:43;90.70;;;26.52;;
23990;SDS011;12205;50.600;4.608;2024-03-08T04:32:10;120.95;;;33.60;;
23990;SDS011;12205;50.600;4.608;2024-03-08T04:34:40;98.53;;;27.25;;
23990;SDS011;12205;50.600;4.608;2024-03-08T04:37:07;89.40;;;26.20;;
23990;SDS011;12205;50.600;4.608;2024-03-08T04:39:36;92.65;;;25.80;;
23990;SDS011;12205;50.600;4.608;2024-03-08T04:42:03;103.57;;;28.40;;
23990;SDS011;12205;50.600;4.608;2024-03-08T04:44:35;103.65;;;28.70;;
23990;SDS011;12205;50.600;4.608;2024-03-08T04:47:03;98.28;;;27.80;;
23990;SDS011;12205;50.600;4.608;2024-03-08T04:49:31;90.07;;;26.00;;
23990;SDS011;12205;50.600;4.608;2024-03-08T04:52:01;102.05;;;28.05;;
23990;SDS011;12205;50.600;4.608;2024-03-08T04:54:29;128.23;;;34.90;;
23990;SDS011;12205;50.600;4.608;2024-03-08T04:56:56;87.32;;;26.48;;
23990;SDS011;12205;50.600;4.608;2024-03-08T04:59:25;92.38;;;27.60;;
23990;SDS011;12205;50.600;4.608;2024-03-08T05:01:53;104.82;;;28.58;;
23990;SDS011;12205;50.600;4.608;2024-03-08T05:04:20;95.63;;;27.58;;
23990;SDS011;12205;50.600;4.608;2024-03-08T05:06:47;82.97;;;24.58;;
23990;SDS011;12205;50.600;4.608;2024-03-08T05:09:16;108.05;;;29.02;;
23990;SDS011;12205;50.600;4.608;2024-03-08T05:11:44;93.32;;;26.08;;
23990;SDS011;12205;50.600;4.608;2024-03-08T05:14:12;101.60;;;28.30;;
23990;SDS011;12205;50.600;4.608;2024-03-08T05:16:41;96.47;;;27.90;;
23990;SDS011;12205;50.600;4.608;2024-03-08T05:19:09;93.70;;;27.27;;
23990;SDS011;12205;50.600;4.608;2024-03-08T05:21:36;114.95;;;31.73;;
23990;SDS011;12205;50.600;4.608;2024-03-08T05:24:03;99.28;;;28.98;;
23990;SDS011;12205;50.600;4.608;2024-03-08T05:26:32;97.60;;;28.35;;
23990;SDS011;12205;50.600;4.608;2024-03-08T05:28:59;92.05;;;26.17;;
23990;SDS011;12205;50.600;4.608;2024-03-08T05:31:26;91.78;;;27.13;;
23990;SDS011;12205;50.600;4.608;2024-03-08T05:33:53;100.40;;;27.38;;
23990;SDS011;12205;50.600;4.608;2024-03-08T05:36:21;95.20;;;27.63;;
23990;SDS011;12205;50.600;4.608;2024-03-08T05:38:48;96.28;;;27.05;;
23990;SDS011;12205;50.600;4.608;2024-03-08T05:41:15;96.28;;;27.23;;
23990;SDS011;12205;50.600;4.608;2024-03-08T05:43:45;130.40;;;35.00;;
23990;SDS011;12205;50.600;4.608;2024-03-08T05:46:15;85.40;;;24.45;;
23990;SDS011;12205;50.600;4.608;2024-03-08T05:48:43;108.18;;;29.45;;
23990;SDS011;12205;50.600;4.608;2024-03-08T05:51:10;92.50;;;26.90;;
23990;SDS011;12205;50.600;4.608;2024-03-08T05:53:38;95.10;;;27.00;;
23990;SDS011;12205;50.600;4.608;2024-03-08T05:56:05;102.30;;;29.67;;
23990;SDS011;12205;50.600;4.608;2024-03-08T05:58:34;116.10;;;31.10;;
23990;SDS011;12205;50.600;4.608;2024-03-08T06:01:03;100.85;;;28.88;;
23990;SDS011;12205;50.600;4.608;2024-03-08T06:03:33;102.05;;;27.65;;
23990;SDS011;12205;50.600;4.608;2024-03-08T06:06:00;126.22;;;34.28;;
23990;SDS011;12205;50.600;4.608;2024-03-08T06:08:27;106.00;;;30.02;;
23990;SDS011;12205;50.600;4.608;2024-03-08T06:10:55;99.88;;;27.20;;
23990;SDS011;12205;50.600;4.608;2024-03-08T06:13:24;104.15;;;27.63;;
23990;SDS011;12205;50.600;4.608;2024-03-08T06:15:51;102.97;;;29.52;;
23990;SDS011;12205;50.600;4.608;2024-03-08T06:18:19;99.93;;;28.42;;
23990;SDS011;12205;50.600;4.608;2024-03-08T06:20:46;112.07;;;30.95;;
23990;SDS011;12205;50.600;4.608;2024-03-08T06:23:13;106.03;;;29.88;;
23990;SDS011;12205;50.600;4.608;2024-03-08T06:25:42;108.45;;;30.20;;
23990;SDS011;12205;50.600;4.608;2024-03-08T06:28:09;104.72;;;29.63;;
23990;SDS011;12205;50.600;4.608;2024-03-08T06:30:37;119.90;;;32.33;;
23990;SDS011;12205;50.600;4.608;2024-03-08T06:33:04;112.45;;;31.02;;
23990;SDS011;12205;50.600;4.608;2024-03-08T06:35:33;98.82;;;27.02;;
23990;SDS011;12205;50.600;4.608;2024-03-08T06:38:03;97.20;;;27.10;;
23990;SDS011;12205;50.600;4.608;2024-03-08T06:40:30;110.03;;;30.95;;
23990;SDS011;12205;50.600;4.608;2024-03-08T06:42:57;99.68;;;29.38;;
23990;SDS011;12205;50.600;4.608;2024-03-08T06:45:24;100.45;;;28.20;;
23990;SDS011;12205;50.600;4.608;2024-03-08T06:47:51;89.60;;;26.27;;
23990;SDS011;12205;50.600;4.608;2024-03-08T06:50:18;113.03;;;31.73;;
23990;SDS011;12205;50.600;4.608;2024-03-08T06:52:46;108.65;;;30.25;;
23990;SDS011;12205;50.600;4.608;2024-03-08T06:55:18;148.18;;;40.50;;
23990;SDS011;12205;50.600;4.608;2024-03-08T06:57:46;103.05;;;29.75;;
23990;SDS011;12205;50.600;4.608;2024-03-08T07:00:13;109.07;;;31.30;;
23990;SDS011;12205;50.600;4.608;2024-03-08T07:02:43;96.57;;;28.20;;
23990;SDS011;12205;50.600;4.608;2024-03-08T07:05:11;113.20;;;30.80;;
23990;SDS011;12205;50.600;4.608;2024-03-08T07:07:38;104.18;;;28.80;;
23990;SDS011;12205;50.600;4.608;2024-03-08T07:10:08;95.68;;;26.75;;
23990;SDS011;12205;50.600;4.608;2024-03-08T07:12:36;98.47;;;27.30;;
23990;SDS011;12205;50.600;4.608;2024-03-08T07:15:04;100.63;;;27.75;;
23990;SDS011;12205;50.600;4.608;2024-03-08T07:17:32;121.82;;;32.72;;
23990;SDS011;12205;50.600;4.608;2024-03-08T07:20:00;88.85;;;26.05;;
23990;SDS011;12205;50.600;4.608;2024-03-08T07:22:36;112.82;;;31.45;;
23990;SDS011;12205;50.600;4.608;2024-03-08T07:25:04;85.05;;;24.35;;
23990;SDS011;12205;50.600;4.608;2024-03-08T07:27:46;94.22;;;27.05;;
23990;SDS011;12205;50.600;4.608;2024-03-08T07:30:14;100.57;;;27.17;;
23990;SDS011;12205;50.600;4.608;2024-03-08T07:33:03;91.97;;;25.88;;
23990;SDS011;12205;50.600;4.608;2024-03-08T07:35:32;128.57;;;31.23;;
23990;SDS011;12205;50.600;4.608;2024-03-08T07:38:02;86.50;;;25.55;;
23990;SDS011;12205;50.600;4.608;2024-03-08T07:40:30;98.13;;;26.65;;
23990;SDS011;12205;50.600;4.608;2024-03-08T07:42:59;100.15;;;27.65;;
23990;SDS011;12205;50.600;4.608;2024-03-08T07:45:27;99.07;;;26.95;;
23990;SDS011;12205;50.600;4.608;2024-03-08T07:47:55;88.47;;;24.90;;
23990;SDS011;12205;50.600;4.608;2024-03-08T07:50:22;134.25;;;36.20;;
23990;SDS011;12205;50.600;4.608;2024-03-08T07:52:49;95.68;;;26.60;;
23990;SDS011;12205;50.600;4.608;2024-03-08T07:55:17;96.95;;;26.80;;
23990;SDS011;12205;50.600;4.608;2024-03-08T07:57:44;86.50;;;24.02;;
23990;SDS011;12205;50.600;4.608;2024-03-08T08:00:14;89.50;;;25.35;;
23990;SDS011;12205;50.600;4.608;2024-03-08T08:02:44;91.93;;;26.17;;
23990;SDS011;12205;50.600;4.608;2024-03-08T08:05:11;98.57;;;28.17;;
23990;SDS011;12205;50.600;4.608;2024-03-08T08:07:39;91.15;;;26.08;;
23990;SDS011;12205;50.600;4.608;2024-03-08T08:10:09;90.78;;;25.42;;
23990;SDS011;12205;50.600;4.608;2024-03-08T08:12:42;107.93;;;30.10;;
23990;SDS011;12205;50.600;4.608;2024-03-08T08:15:09;90.30;;;25.48;;
23990;SDS011;12205;50.600;4.608;2024-03-08T08:17:37;102.20;;;28.52;;
23990;SDS011;12205;50.600;4.608;2024-03-08T08:20:05;81.70;;;24.15;;
23990;SDS011;12205;50.600;4.608;2024-03-08T08:22:32;92.53;;;27.02;;
23990;SDS011;12205;50.600;4.608;2024-03-08T08:24:59;94.45;;;25.83;;
23990;SDS011;12205;50.600;4.608;2024-03-08T08:27:27;91.00;;;25.02;;
23990;SDS011;12205;50.600;4.608;2024-03-08T08:29:54;91.60;;;26.13;;
23990;SDS011;12205;50.600;4.608;2024-03-08T08:32:21;97.22;;;27.40;;
23990;SDS011;12205;50.600;4.608;2024-03-08T08:34:49;97.35;;;27.63;;
23990;SDS011;12205;50.600;4.608;2024-03-08T08:37:16;96.22;;;26.75;;
23990;SDS011;12205;50.600;4.608;2024-03-08T08:39:43;122.25;;;31.98;;
23990;SDS011;12205;50.600;4.608;2024-03-08T08:42:10;82.60;;;23.35;;
23990;SDS011;12205;50.600;4.608;2024-03-08T08:44:38;90.75;;;25.55;;
23990;SDS011;12205;50.600;4.608;2024-03-08T08:47:05;99.63;;;27.17;;
23990;SDS011;12205;50.600;4.608;2024-03-08T08:49:33;95.50;;;24.75;;
23990;SDS011;12205;50.600;4.608;2024-03-08T08:52:01;87.18;;;24.65;;
23990;SDS011;12205;50.600;4.608;2024-03-08T08:54:29;106.03;;;27.98;;
23990;SDS011;12205;50.600;4.608;2024-03-08T08:56:56;82.05;;;22.23;;
23990;SDS011;12205;50.600;4.608;2024-03-08T08:59:23;102.18;;;27.10;;
23990;SDS011;12205;50.600;4.608;2024-03-08T09:01:50;127.53;;;34.10;;
23990;SDS011;12205;50.600;4.608;2024-03-08T09:04:19;90.82;;;24.95;;
23990;SDS011;12205;50.600;4.608;2024-03-08T09:06:48;99.90;;;26.77;;
23990;SDS011;12205;50.600;4.608;2024-03-08T09:09:16;105.40;;;27.85;;
23990;SDS011;12205;50.600;4.608;2024-03-08T09:11:44;77.78;;;22.58;;
23990;SDS011;12205;50.600;4.608;2024-03-08T09:14:11;85.25;;;23.35;;
23990;SDS011;12205;50.600;4.608;2024-03-08T09:16:39;82.78;;;22.95;;
23990;SDS011;12205;50.600;4.608;2024-03-08T09:19:06;84.18;;;23.70;;
23990;SDS011;12205;50.600;4.608;2024-03-08T09:21:36;85.93;;;24.15;;
23990;SDS011;12205;50.600;4.608;2024-03-08T09:24:04;103.90;;;27.60;;
23990;SDS011;12205;50.600;4.608;2024-03-08T09:26:33;81.78;;;22.13;;
23990;SDS011;12205;50.600;4.608;2024-03-08T09:29:00;105.47;;;28.05;;
23990;SDS011;12205;50.600;4.608;2024-03-08T09:31:27;91.18;;;25.17;;
23990;SDS011;12205;50.600;4.608;2024-03-08T09:33:55;69.35;;;19.75;;
23990;SDS011;12205;50.600;4.608;2024-03-08T09:36:22;85.78;;;23.92;;
23990;SDS011;12205;50.600;4.608;2024-03-08T09:38:50;87.22;;;23.90;;
23990;SDS011;12205;50.600;4.608;2024-03-08T09:41:18;85.55;;;23.13;;
23990;SDS011;12205;50.600;4.608;2024-03-08T09:43:46;77.15;;;21.70;;
23990;SDS011;12205;50.600;4.608;2024-03-08T09:46:14;82.95;;;23.15;;
23990;SDS011;12205;50.600;4.608;2024-03-08T09:48:42;89.97;;;24.20;;
23990;SDS011;12205;50.600;4.608;2024-03-08T09:51:09;97.53;;;27.80;;
23990;SDS011;12205;50.600;4.608;2024-03-08T09:53:40;73.07;;;20.58;;
23990;SDS011;12205;50.600;4.608;2024-03-08T09:56:08;90.90;;;23.70;;
23990;SDS011;12205;50.600;4.608;2024-03-08T09:58:37;67.10;;;19.90;;
23990;SDS011;12205;50.600;4.608;2024-03-08T10:01:21;83.35;;;23.67;;
23990;SDS011;12205;50.600;4.608;2024-03-08T10:03:48;72.30;;;20.70;;
23990;SDS011;12205;50.600;4.608;2024-03-08T10:06:15;77.90;;;20.50;;
23990;SDS011;12205;50.600;4.608;2024-03-08T10:08:42;82.93;;;22.48;;
23990;SDS011;12205;50.600;4.608;2024-03-08T10:11:10;90.82;;;24.33;;
23990;SDS011;12205;50.600;4.608;2024-03-08T10:13:37;96.03;;;25.75;;
23990;SDS011;12205;50.600;4.608;2024-03-08T10:16:06;81.30;;;22.25;;
23990;SDS011;12205;50.600;4.608;2024-03-08T10:18:35;94.80;;;25.17;;
23990;SDS011;12205;50.600;4.608;2024-03-08T10:21:01;76.70;;;21.58;;
23990;SDS011;12205;50.600;4.608;2024-03-08T10:23:30;79.38;;;21.05;;
23990;SDS011;12205;50.600;4.608;2024-03-08T10:26:08;80.00;;;20.45;;
23990;SDS011;12205;50.600;4.608;2024-03-08T10:28:40;88.45;;;23.20;;
23990;SDS011;12205;50.600;4.608;2024-03-08T10:31:08;81.40;;;21.95;;
23990;SDS011;12205;50.600;4.608;2024-03-08T10:33:37;83.72;;;22.23;;
23990;SDS011;12205;50.600;4.608;2024-03-08T10:36:05;79.88;;;21.42;;
23990;SDS011;12205;50.600;4.608;2024-03-08T10:38:34;69.20;;;19.20;;
23990;SDS011;12205;50.600;4.608;2024-03-08T10:41:04;90.38;;;22.70;;
23990;SDS011;12205;50.600;4.608;2024-03-08T10:43:33;73.00;;;19.60;;
23990;SDS011;12205;50.600;4.608;2024-03-08T10:46:12;83.93;;;22.17;;
23990;SDS011;12205;50.600;4.608;2024-03-08T10:48:49;65.07;;;17.27;;
23990;SDS011;12205;50.600;4.608;2024-03-08T10:51:18;69.55;;;18.08;;
23990;SDS011;12205;50.600;4.608;2024-03-08T10:53:46;59.00;;;16.33;;
23990;SDS011;12205;50.600;4.608;2024-03-08T10:56:16;80.70;;;20.17;;
23990;SDS011;12205;50.600;4.608;2024-03-08T10:58:43;60.92;;;15.77;;
23990;SDS011;12205;50.600;4.608;2024-03-08T11:01:11;64.00;;;17.17;;
23990;SDS011;12205;50.600;4.608;2024-03-08T11:03:47;72.50;;;18.17;;
23990;SDS011;12205;50.600;4.608;2024-03-08T11:06:18;66.68;;;17.80;;
23990;SDS011;12205;50.600;4.608;2024-03-08T11:08:49;63.00;;;16.98;;
23990;SDS011;12205;50.600;4.608;2024-03-08T11:11:26;68.80;;;18.50;;
23990;SDS011;12205;50.600;4.608;2024-03-08T11:13:55;94.00;;;24.45;;
23990;SDS011;12205;50.600;4.608;2024-03-08T11:16:36;59.80;;;16.75;;
23990;SDS011;12205;50.600;4.608;2024-03-08T11:22:00;60.53;;;16.63;;
23990;SDS011;12205;50.600;4.608;2024-03-08T11:24:36;74.13;;;18.60;;
23990;SDS011;12205;50.600;4.608;2024-03-08T11:27:09;72.07;;;18.75;;
23990;SDS011;12205;50.600;4.608;2024-03-08T11:29:38;74.05;;;19.02;;
23990;SDS011;12205;50.600;4.608;2024-03-08T11:32:09;60.60;;;16.13;;
23990;SDS011;12205;50.600;4.608;2024-03-08T11:34:39;52.35;;;14.50;;
23990;SDS011;12205;50.600;4.608;2024-03-08T11:37:10;68.25;;;18.25;;
23990;SDS011;12205;50.600;4.608;2024-03-08T11:39:40;65.88;;;17.70;;
23990;SDS011;12205;50.600;4.608;2024-03-08T11:42:12;46.58;;;13.25;;
23990;SDS011;12205;50.600;4.608;2024-03-08T11:44:39;58.17;;;16.00;;
23990;SDS011;12205;50.600;4.608;2024-03-08T11:47:09;64.47;;;17.20;;
23990;SDS011;12205;50.600;4.608;2024-03-08T11:49:37;70.22;;;17.17;;
23990;SDS011;12205;50.600;4.608;2024-03-08T11:52:10;66.25;;;18.55;;
23990;SDS011;12205;50.600;4.608;2024-03-08T11:54:38;61.05;;;16.30;;
23990;SDS011;12205;50.600;4.608;2024-03-08T11:57:06;55.72;;;15.05;;
23990;SDS011;12205;50.600;4.608;2024-03-08T11:59:35;66.68;;;17.38;;
23990;SDS011;12205;50.600;4.608;2024-03-08T12:02:02;57.60;;;15.98;;
23990;SDS011;12205;50.600;4.608;2024-03-08T12:04:31;53.33;;;14.32;;
23990;SDS011;12205;50.600;4.608;2024-03-08T12:07:02;52.78;;;14.80;;
23990;SDS011;12205;50.600;4.608;2024-03-08T12:09:34;53.28;;;14.50;;
23990;SDS011;12205;50.600;4.608;2024-03-08T12:12:02;58.15;;;16.02;;
23990;SDS011;12205;50.600;4.608;2024-03-08T12:14:30;82.68;;;21.00;;
23990;SDS011;12205;50.600;4.608;2024-03-08T12:16:58;63.28;;;15.43;;
23990;SDS011;12205;50.600;4.608;2024-03-08T12:19:26;63.83;;;17.10;;
23990;SDS011;12205;50.600;4.608;2024-03-08T12:21:53;49.80;;;13.82;;
23990;SDS011;12205;50.600;4.608;2024-03-08T12:24:22;52.47;;;14.40;;
23990;SDS011;12205;50.600;4.608;2024-03-08T12:26:49;57.78;;;16.00;;
23990;SDS011;12205;50.600;4.608;2024-03-08T12:29:18;47.15;;;13.05;;
23990;SDS011;12205;50.600;4.608;2024-03-08T12:31:47;43.45;;;12.75;;
23990;SDS011;12205;50.600;4.608;2024-03-08T12:34:17;32.35;;;10.90;;
23990;SDS011;12205;50.600;4.608;2024-03-08T12:36:47;27.38;;;9.50;;
23990;SDS011;12205;50.600;4.608;2024-03-08T12:39:17;28.08;;;9.73;;
23990;SDS011;12205;50.600;4.608;2024-03-08T12:41:49;69.50;;;19.20;;
23990;SDS011;12205;50.600;4.608;2024-03-08T12:44:16;81.45;;;23.00;;
23990;SDS011;12205;50.600;4.608;2024-03-08T12:46:44;65.80;;;17.67;;
23990;SDS011;12205;50.600;4.608;2024-03-08T12:49:11;144.95;;;64.00;;
23990;SDS011;12205;50.600;4.608;2024-03-08T12:51:42;178.25;;;62.47;;
23990;SDS011;12205;50.600;4.608;2024-03-08T12:54:09;120.68;;;40.05;;
23990;SDS011;12205;50.600;4.608;2024-03-08T12:56:36;101.57;;;34.50;;
23990;SDS011;12205;50.600;4.608;2024-03-08T12:59:06;121.40;;;40.90;;
23990;SDS011;12205;50.600;4.608;2024-03-08T13:01:35;151.23;;;51.38;;
23990;SDS011;12205;50.600;4.608;2024-03-08T13:04:03;161.63;;;52.80;;
23990;SDS011;12205;50.600;4.608;2024-03-08T13:06:32;138.00;;;49.45;;
23990;SDS011;12205;50.600;4.608;2024-03-08T13:08:59;152.45;;;56.58;;
23990;SDS011;12205;50.600;4.608;2024-03-08T13:11:30;130.85;;;46.95;;
23990;SDS011;12205;50.600;4.608;2024-03-08T13:14:01;102.80;;;34.70;;
23990;SDS011;12205;50.600;4.608;2024-03-08T13:16:31;134.65;;;42.35;;
23990;SDS011;12205;50.600;4.608;2024-03-08T13:19:00;116.60;;;43.67;;
23990;SDS011;12205;50.600;4.608;2024-03-08T13:21:27;140.82;;;47.78;;
23990;SDS011;12205;50.600;4.608;2024-03-08T13:23:55;125.78;;;46.13;;
23990;SDS011;12205;50.600;4.608;2024-03-08T13:26:24;163.32;;;47.05;;
23990;SDS011;12205;50.600;4.608;2024-03-08T13:28:58;95.78;;;29.33;;
23990;SDS011;12205;50.600;4.608;2024-03-08T13:31:25;154.65;;;45.63;;
23990;SDS011;12205;50.600;4.608;2024-03-08T13:33:52;125.70;;;45.80;;
23990;SDS011;12205;50.600;4.608;2024-03-08T13:36:23;130.25;;;44.15;;
23990;SDS011;12205;50.600;4.608;2024-03-08T13:38:54;118.03;;;41.45;;
23990;SDS011;12205;50.600;4.608;2024-03-08T13:41:21;132.70;;;43.22;;
23990;SDS011;12205;50.600;4.608;2024-03-08T13:43:49;164.82;;;58.72;;
23990;SDS011;12205;50.600;4.608;2024-03-08T13:46:18;148.65;;;57.45;;
23990;SDS011;12205;50.600;4.608;2024-03-08T13:48:45;139.40;;;57.15;;
23990;SDS011;12205;50.600;4.608;2024-03-08T13:51:14;89.55;;;30.02;;
23990;SDS011;12205;50.600;4.608;2024-03-08T13:53:42;95.20;;;30.80;;
23990;SDS011;12205;50.600;4.608;2024-03-08T13:56:09;80.15;;;21.20;;
23990;SDS011;12205;50.600;4.608;2024-03-08T13:58:36;91.15;;;24.52;;
23990;SDS011;12205;50.600;4.608;2024-03-08T14:01:05;66.18;;;18.20;;
23990;SDS011;12205;50.600;4.608;2024-03-08T14:03:36;87.40;;;25.00;;
23990;SDS011;12205;50.600;4.608;2024-03-08T14:06:03;96.40;;;29.05;;
23990;SDS011;12205;50.600;4.608;2024-03-08T14:08:33;80.28;;;23.20;;
23990;SDS011;12205;50.600;4.608;2024-03-08T14:11:03;97.55;;;27.95;;
23990;SDS011;12205;50.600;4.608;2024-03-08T14:13:40;106.22;;;30.15;;
23990;SDS011;12205;50.600;4.608;2024-03-08T14:16:07;98.53;;;31.70;;
23990;SDS011;12205;50.600;4.608;2024-03-08T14:18:35;88.50;;;26.58;;
23990;SDS011;12205;50.600;4.608;2024-03-08T14:21:03;118.88;;;35.35;;
23990;SDS011;12205;50.600;4.608;2024-03-08T14:23:30;91.13;;;29.50;;
23990;SDS011;12205;50.600;4.608;2024-03-08T14:25:59;90.15;;;27.90;;
23990;SDS011;12205;50.600;4.608;2024-03-08T14:28:26;96.63;;;29.42;;
23990;SDS011;12205;50.600;4.608;2024-03-08T14:30:53;89.05;;;27.77;;
23990;SDS011;12205;50.600;4.608;2024-03-08T14:33:20;81.15;;;23.00;;